sensor_id;sensor_type;location;lat;lon;timestamp;temperature;humidity
14798;DHT22;7490;63.708;20.368;2023-07-20T00:00:19;12.90;99.90
14798;DHT22;7490;63.708;20.368;2023-07-20T00:02:45;12.90;99.90
14798;DHT22;7490;63.708;20.368;2023-07-20T00:05:11;12.90;99.90
14798;DHT22;7490;63.708;20.368;2023-07-20T00:07:36;12.90;99.90
14798;DHT22;7490;63.708;20.368;2023-07-20T00:10:02;12.90;99.90
14798;DHT22;7490;63.708;20.368;2023-07-20T00:12:28;12.90;99.90
14798;DHT22;7490;63.708;20.368;2023-07-20T00:14:53;12.90;99.90
14798;DHT22;7490;63.708;20.368;2023-07-20T00:17:19;12.80;99.90
14798;DHT22;7490;63.708;20.368;2023-07-20T00:19:45;12.80;99.90
14798;DHT22;7490;63.708;20.368;2023-07-20T00:22:11;12.80;99.90
14798;DHT22;7490;63.708;20.368;2023-07-20T00:24:38;12.80;99.90
14798;DHT22;7490;63.708;20.368;2023-07-20T00:27:04;12.80;99.90
14798;DHT22;7490;63.708;20.368;2023-07-20T00:29:30;12.80;99.90
14798;DHT22;7490;63.708;20.368;2023-07-20T00:31:55;12.70;99.90
14798;DHT22;7490;63.708;20.368;2023-07-20T00:34:21;12.70;99.90
14798;DHT22;7490;63.708;20.368;2023-07-20T00:36:47;12.60;99.90
14798;DHT22;7490;63.708;20.368;2023-07-20T00:39:14;12.60;99.90
14798;DHT22;7490;63.708;20.368;2023-07-20T00:41:40;12.60;99.90
14798;DHT22;7490;63.708;20.368;2023-07-20T00:44:05;12.60;99.90
14798;DHT22;7490;63.708;20.368;2023-07-20T00:46:32;12.60;99.90
14798;DHT22;7490;63.708;20.368;2023-07-20T00:48:58;12.60;99.90
14798;DHT22;7490;63.708;20.368;2023-07-20T00:51:25;12.60;99.90
14798;DHT22;7490;63.708;20.368;2023-07-20T00:53:52;12.50;99.90
14798;DHT22;7490;63.708;20.368;2023-07-20T00:56:19;12.50;99.90
14798;DHT22;7490;63.708;20.368;2023-07-20T00:58:44;12.50;99.90
14798;DHT22;7490;63.708;20.368;2023-07-20T01:01:11;12.50;99.90
14798;DHT22;7490;63.708;20.368;2023-07-20T01:03:37;12.50;99.90
14798;DHT22;7490;63.708;20.368;2023-07-20T01:06:57;12.50;99.90
14798;DHT22;7490;63.708;20.368;2023-07-20T01:09:39;12.50;99.90
14798;DHT22;7490;63.708;20.368;2023-07-20T01:12:29;12.50;99.90
14798;DHT22;7490;63.708;20.368;2023-07-20T01:14:55;12.40;99.90
14798;DHT22;7490;63.708;20.368;2023-07-20T01:17:22;12.40;99.90
14798;DHT22;7490;63.708;20.368;2023-07-20T01:19:49;12.40;99.90
14798;DHT22;7490;63.708;20.368;2023-07-20T01:33:35;12.40;99.90
14798;DHT22;7490;63.708;20.368;2023-07-20T01:36:02;12.40;99.90
14798;DHT22;7490;63.708;20.368;2023-07-20T01:38:28;12.40;99.90
14798;DHT22;7490;63.708;20.368;2023-07-20T01:40:55;12.40;99.90
14798;DHT22;7490;63.708;20.368;2023-07-20T01:43:21;12.40;99.90
14798;DHT22;7490;63.708;20.368;2023-07-20T01:45:47;12.50;99.90
14798;DHT22;7490;63.708;20.368;2023-07-20T01:48:13;12.50;99.90
14798;DHT22;7490;63.708;20.368;2023-07-20T01:50:38;12.50;99.90
14798;DHT22;7490;63.708;20.368;2023-07-20T01:53:04;12.60;99.90
14798;DHT22;7490;63.708;20.368;2023-07-20T01:55:30;12.60;99.90
14798;DHT22;7490;63.708;20.368;2023-07-20T01:57:55;12.60;99.90
14798;DHT22;7490;63.708;20.368;2023-07-20T02:00:22;12.60;99.90
14798;DHT22;7490;63.708;20.368;2023-07-20T02:02:50;12.60;99.90
14798;DHT22;7490;63.708;20.368;2023-07-20T02:05:16;12.60;99.90
14798;DHT22;7490;63.708;20.368;2023-07-20T02:07:42;12.60;99.90
14798;DHT22;7490;63.708;20.368;2023-07-20T02:10:08;12.70;99.90
14798;DHT22;7490;63.708;20.368;2023-07-20T02:12:34;12.70;99.90
14798;DHT22;7490;63.708;20.368;2023-07-20T02:14:59;12.70;99.90
14798;DHT22;7490;63.708;20.368;2023-07-20T02:17:25;12.70;99.90
14798;DHT22;7490;63.708;20.368;2023-07-20T02:19:52;12.70;99.90
14798;DHT22;7490;63.708;20.368;2023-07-20T02:22:19;12.70;99.90
14798;DHT22;7490;63.708;20.368;2023-07-20T02:24:44;12.80;99.90
14798;DHT22;7490;63.708;20.368;2023-07-20T02:27:10;12.80;99.90
14798;DHT22;7490;63.708;20.368;2023-07-20T02:29:35;12.80;99.90
14798;DHT22;7490;63.708;20.368;2023-07-20T02:32:01;12.90;99.90
14798;DHT22;7490;63.708;20.368;2023-07-20T02:34:27;12.90;99.90
14798;DHT22;7490;63.708;20.368;2023-07-20T02:36:53;12.90;99.90
14798;DHT22;7490;63.708;20.368;2023-07-20T02:39:21;13.00;99.90
14798;DHT22;7490;63.708;20.368;2023-07-20T02:41:47;13.00;99.90
14798;DHT22;7490;63.708;20.368;2023-07-20T02:44:14;13.10;99.90
14798;DHT22;7490;63.708;20.368;2023-07-20T02:46:40;13.10;99.90
14798;DHT22;7490;63.708;20.368;2023-07-20T02:49:06;13.20;99.90
14798;DHT22;7490;63.708;20.368;2023-07-20T02:51:31;13.20;99.90
14798;DHT22;7490;63.708;20.368;2023-07-20T02:53:57;13.30;99.90
14798;DHT22;7490;63.708;20.368;2023-07-20T02:56:23;13.30;99.90
14798;DHT22;7490;63.708;20.368;2023-07-20T02:58:49;13.40;99.90
14798;DHT22;7490;63.708;20.368;2023-07-20T03:01:14;13.60;99.90
14798;DHT22;7490;63.708;20.368;2023-07-20T03:03:40;13.80;99.90
14798;DHT22;7490;63.708;20.368;2023-07-20T03:06:06;14.30;99.90
14798;DHT22;7490;63.708;20.368;2023-07-20T03:08:35;15.80;99.90
14798;DHT22;7490;63.708;20.368;2023-07-20T03:11:01;17.70;99.90
14798;DHT22;7490;63.708;20.368;2023-07-20T03:13:27;19.50;99.90
14798;DHT22;7490;63.708;20.368;2023-07-20T03:15:53;21.00;99.90
14798;DHT22;7490;63.708;20.368;2023-07-20T03:18:18;22.10;98.50
14798;DHT22;7490;63.708;20.368;2023-07-20T03:20:44;23.00;94.60
14798;DHT22;7490;63.708;20.368;2023-07-20T03:23:10;23.70;91.50
14798;DHT22;7490;63.708;20.368;2023-07-20T03:25:36;24.40;87.80
14798;DHT22;7490;63.708;20.368;2023-07-20T03:28:03;24.90;82.10
14798;DHT22;7490;63.708;20.368;2023-07-20T03:30:28;25.40;78.10
14798;DHT22;7490;63.708;20.368;2023-07-20T03:32:54;25.80;74.50
14798;DHT22;7490;63.708;20.368;2023-07-20T03:35:20;26.20;72.00
14798;DHT22;7490;63.708;20.368;2023-07-20T03:37:45;26.60;69.30
14798;DHT22;7490;63.708;20.368;2023-07-20T03:40:11;27.10;66.80
14798;DHT22;7490;63.708;20.368;2023-07-20T03:42:37;27.50;64.40
14798;DHT22;7490;63.708;20.368;2023-07-20T03:45:04;27.80;62.50
14798;DHT22;7490;63.708;20.368;2023-07-20T03:47:31;28.10;60.40
14798;DHT22;7490;63.708;20.368;2023-07-20T03:49:57;28.40;58.80
14798;DHT22;7490;63.708;20.368;2023-07-20T03:52:23;28.60;58.00
14798;DHT22;7490;63.708;20.368;2023-07-20T03:54:49;28.80;57.00
14798;DHT22;7490;63.708;20.368;2023-07-20T03:57:16;28.90;56.10
14798;DHT22;7490;63.708;20.368;2023-07-20T03:59:45;28.90;55.40
14798;DHT22;7490;63.708;20.368;2023-07-20T04:02:11;29.00;54.80
14798;DHT22;7490;63.708;20.368;2023-07-20T04:04:37;29.00;54.40
14798;DHT22;7490;63.708;20.368;2023-07-20T04:07:03;29.10;54.30
14798;DHT22;7490;63.708;20.368;2023-07-20T04:09:29;29.50;53.90
14798;DHT22;7490;63.708;20.368;2023-07-20T04:11:55;29.90;53.00
14798;DHT22;7490;63.708;20.368;2023-07-20T04:14:21;30.20;52.10
14798;DHT22;7490;63.708;20.368;2023-07-20T04:16:47;30.60;51.10
14798;DHT22;7490;63.708;20.368;2023-07-20T04:19:13;30.90;50.20
14798;DHT22;7490;63.708;20.368;2023-07-20T04:21:41;31.20;49.50
14798;DHT22;7490;63.708;20.368;2023-07-20T04:24:07;31.40;48.70
14798;DHT22;7490;63.708;20.368;2023-07-20T04:26:33;31.60;48.50
14798;DHT22;7490;63.708;20.368;2023-07-20T04:28:59;31.80;48.10
14798;DHT22;7490;63.708;20.368;2023-07-20T04:31:25;32.10;47.60
14798;DHT22;7490;63.708;20.368;2023-07-20T04:33:50;32.40;46.40
14798;DHT22;7490;63.708;20.368;2023-07-20T04:36:16;32.30;45.80
14798;DHT22;7490;63.708;20.368;2023-07-20T04:38:45;32.50;45.80
14798;DHT22;7490;63.708;20.368;2023-07-20T04:41:11;32.70;45.20
14798;DHT22;7490;63.708;20.368;2023-07-20T04:43:44;32.90;44.60
14798;DHT22;7490;63.708;20.368;2023-07-20T04:46:12;33.00;43.90
14798;DHT22;7490;63.708;20.368;2023-07-20T04:48:38;33.10;43.80
14798;DHT22;7490;63.708;20.368;2023-07-20T04:51:06;33.30;43.70
14798;DHT22;7490;63.708;20.368;2023-07-20T04:53:31;33.50;43.40
14798;DHT22;7490;63.708;20.368;2023-07-20T04:55:57;33.70;43.20
14798;DHT22;7490;63.708;20.368;2023-07-20T04:58:23;33.90;42.70
14798;DHT22;7490;63.708;20.368;2023-07-20T05:00:49;34.10;42.90
14798;DHT22;7490;63.708;20.368;2023-07-20T05:03:15;34.10;42.20
14798;DHT22;7490;63.708;20.368;2023-07-20T05:05:41;34.20;42.00
14798;DHT22;7490;63.708;20.368;2023-07-20T05:08:06;34.50;41.70
14798;DHT22;7490;63.708;20.368;2023-07-20T05:10:32;34.70;41.00
14798;DHT22;7490;63.708;20.368;2023-07-20T05:12:59;34.90;40.60
14798;DHT22;7490;63.708;20.368;2023-07-20T05:15:25;35.10;40.40
14798;DHT22;7490;63.708;20.368;2023-07-20T05:17:50;35.30;39.80
14798;DHT22;7490;63.708;20.368;2023-07-20T05:20:16;35.40;39.40
14798;DHT22;7490;63.708;20.368;2023-07-20T05:22:42;35.50;38.80
14798;DHT22;7490;63.708;20.368;2023-07-20T05:25:09;35.30;38.90
14798;DHT22;7490;63.708;20.368;2023-07-20T05:27:39;35.40;39.00
14798;DHT22;7490;63.708;20.368;2023-07-20T05:30:06;35.70;38.50
14798;DHT22;7490;63.708;20.368;2023-07-20T05:32:33;35.90;38.50
14798;DHT22;7490;63.708;20.368;2023-07-20T05:34:58;36.10;37.70
14798;DHT22;7490;63.708;20.368;2023-07-20T05:37:24;36.20;37.80
14798;DHT22;7490;63.708;20.368;2023-07-20T05:39:50;36.30;37.40
14798;DHT22;7490;63.708;20.368;2023-07-20T05:42:16;36.50;37.40
14798;DHT22;7490;63.708;20.368;2023-07-20T05:44:42;36.70;36.80
14798;DHT22;7490;63.708;20.368;2023-07-20T05:47:08;36.70;36.70
14798;DHT22;7490;63.708;20.368;2023-07-20T05:49:34;36.80;36.40
14798;DHT22;7490;63.708;20.368;2023-07-20T05:52:00;36.60;35.70
14798;DHT22;7490;63.708;20.368;2023-07-20T05:54:26;36.30;36.30
14798;DHT22;7490;63.708;20.368;2023-07-20T05:56:52;36.30;36.80
14798;DHT22;7490;63.708;20.368;2023-07-20T05:59:18;36.20;36.60
14798;DHT22;7490;63.708;20.368;2023-07-20T06:01:45;36.30;36.80
14798;DHT22;7490;63.708;20.368;2023-07-20T06:04:11;36.60;36.70
14798;DHT22;7490;63.708;20.368;2023-07-20T06:06:37;36.90;36.40
14798;DHT22;7490;63.708;20.368;2023-07-20T06:09:03;37.10;35.30
14798;DHT22;7490;63.708;20.368;2023-07-20T06:11:30;37.10;35.70
14798;DHT22;7490;63.708;20.368;2023-07-20T06:13:56;37.30;35.60
14798;DHT22;7490;63.708;20.368;2023-07-20T06:16:22;37.60;35.20
14798;DHT22;7490;63.708;20.368;2023-07-20T06:18:48;37.40;35.00
14798;DHT22;7490;63.708;20.368;2023-07-20T06:21:13;37.30;35.40
14798;DHT22;7490;63.708;20.368;2023-07-20T06:23:40;37.40;35.30
14798;DHT22;7490;63.708;20.368;2023-07-20T06:26:06;37.70;34.90
14798;DHT22;7490;63.708;20.368;2023-07-20T06:28:32;37.80;34.40
14798;DHT22;7490;63.708;20.368;2023-07-20T06:31:02;37.90;34.60
14798;DHT22;7490;63.708;20.368;2023-07-20T06:33:28;37.90;34.40
14798;DHT22;7490;63.708;20.368;2023-07-20T06:35:54;38.00;34.60
14798;DHT22;7490;63.708;20.368;2023-07-20T06:38:20;38.20;34.30
14798;DHT22;7490;63.708;20.368;2023-07-20T06:40:51;38.50;34.00
14798;DHT22;7490;63.708;20.368;2023-07-20T06:43:16;38.90;33.70
14798;DHT22;7490;63.708;20.368;2023-07-20T06:45:42;39.10;33.50
14798;DHT22;7490;63.708;20.368;2023-07-20T06:48:08;39.20;33.20
14798;DHT22;7490;63.708;20.368;2023-07-20T06:50:34;39.20;33.10
14798;DHT22;7490;63.708;20.368;2023-07-20T06:53:00;38.60;32.90
14798;DHT22;7490;63.708;20.368;2023-07-20T06:55:28;38.00;33.60
14798;DHT22;7490;63.708;20.368;2023-07-20T06:57:54;37.70;33.50
14798;DHT22;7490;63.708;20.368;2023-07-20T07:00:20;37.80;33.90
14798;DHT22;7490;63.708;20.368;2023-07-20T07:02:45;37.90;33.70
14798;DHT22;7490;63.708;20.368;2023-07-20T07:05:11;37.80;34.20
14798;DHT22;7490;63.708;20.368;2023-07-20T07:07:38;38.20;34.30
14798;DHT22;7490;63.708;20.368;2023-07-20T07:10:05;38.50;33.30
14798;DHT22;7490;63.708;20.368;2023-07-20T07:12:31;38.80;33.30
14798;DHT22;7490;63.708;20.368;2023-07-20T07:14:57;39.00;32.40
14798;DHT22;7490;63.708;20.368;2023-07-20T07:17:23;38.50;32.60
14798;DHT22;7490;63.708;20.368;2023-07-20T07:19:49;38.40;32.70
14798;DHT22;7490;63.708;20.368;2023-07-20T07:22:14;38.50;33.40
14798;DHT22;7490;63.708;20.368;2023-07-20T07:24:40;38.00;33.30
14798;DHT22;7490;63.708;20.368;2023-07-20T07:27:08;37.20;34.00
14798;DHT22;7490;63.708;20.368;2023-07-20T07:29:34;36.50;34.40
14798;DHT22;7490;63.708;20.368;2023-07-20T07:32:00;35.40;35.40
14798;DHT22;7490;63.708;20.368;2023-07-20T07:34:27;34.20;37.00
14798;DHT22;7490;63.708;20.368;2023-07-20T07:36:52;33.40;38.00
14798;DHT22;7490;63.708;20.368;2023-07-20T07:39:19;32.70;39.60
14798;DHT22;7490;63.708;20.368;2023-07-20T07:41:44;32.40;40.30
14798;DHT22;7490;63.708;20.368;2023-07-20T07:44:10;32.30;40.50
14798;DHT22;7490;63.708;20.368;2023-07-20T07:46:36;32.40;40.80
14798;DHT22;7490;63.708;20.368;2023-07-20T07:49:01;32.60;40.40
14798;DHT22;7490;63.708;20.368;2023-07-20T07:51:27;32.70;39.80
14798;DHT22;7490;63.708;20.368;2023-07-20T07:53:53;32.60;39.90
14798;DHT22;7490;63.708;20.368;2023-07-20T07:56:18;33.20;40.00
14798;DHT22;7490;63.708;20.368;2023-07-20T07:58:49;33.50;39.50
14798;DHT22;7490;63.708;20.368;2023-07-20T08:01:16;33.70;39.50
14798;DHT22;7490;63.708;20.368;2023-07-20T08:03:44;33.60;38.70
14798;DHT22;7490;63.708;20.368;2023-07-20T08:06:13;32.60;39.60
14798;DHT22;7490;63.708;20.368;2023-07-20T08:08:38;31.50;40.50
14798;DHT22;7490;63.708;20.368;2023-07-20T08:11:04;30.60;42.30
14798;DHT22;7490;63.708;20.368;2023-07-20T08:13:30;29.80;43.00
14798;DHT22;7490;63.708;20.368;2023-07-20T08:15:57;29.00;44.30
14798;DHT22;7490;63.708;20.368;2023-07-20T08:18:23;28.50;45.80
14798;DHT22;7490;63.708;20.368;2023-07-20T08:20:48;28.10;46.60
14798;DHT22;7490;63.708;20.368;2023-07-20T08:23:15;27.80;47.30
14798;DHT22;7490;63.708;20.368;2023-07-20T08:25:40;27.60;48.00
14798;DHT22;7490;63.708;20.368;2023-07-20T08:28:14;28.80;48.10
14798;DHT22;7490;63.708;20.368;2023-07-20T08:30:45;31.00;45.30
14798;DHT22;7490;63.708;20.368;2023-07-20T08:33:13;32.80;42.70
14798;DHT22;7490;63.708;20.368;2023-07-20T08:35:39;34.30;40.70
14798;DHT22;7490;63.708;20.368;2023-07-20T08:38:04;35.20;38.50
14798;DHT22;7490;63.708;20.368;2023-07-20T08:40:31;35.40;37.80
14798;DHT22;7490;63.708;20.368;2023-07-20T08:42:58;36.10;37.60
14798;DHT22;7490;63.708;20.368;2023-07-20T08:45:27;36.40;37.00
14798;DHT22;7490;63.708;20.368;2023-07-20T08:47:56;35.50;37.20
14798;DHT22;7490;63.708;20.368;2023-07-20T08:50:22;34.00;38.70
14798;DHT22;7490;63.708;20.368;2023-07-20T08:52:48;32.20;40.70
14798;DHT22;7490;63.708;20.368;2023-07-20T08:55:15;30.60;42.80
14798;DHT22;7490;63.708;20.368;2023-07-20T08:57:41;29.40;45.10
14798;DHT22;7490;63.708;20.368;2023-07-20T09:00:09;28.80;47.30
14798;DHT22;7490;63.708;20.368;2023-07-20T09:02:39;29.00;47.40
14798;DHT22;7490;63.708;20.368;2023-07-20T09:05:08;28.70;47.90
14798;DHT22;7490;63.708;20.368;2023-07-20T09:07:36;28.10;48.80
14798;DHT22;7490;63.708;20.368;2023-07-20T09:10:02;27.60;49.40
14798;DHT22;7490;63.708;20.368;2023-07-20T09:12:34;26.90;50.30
14798;DHT22;7490;63.708;20.368;2023-07-20T09:15:00;26.40;51.70
14798;DHT22;7490;63.708;20.368;2023-07-20T09:17:26;26.70;53.30
14798;DHT22;7490;63.708;20.368;2023-07-20T09:19:52;27.30;52.80
14798;DHT22;7490;63.708;20.368;2023-07-20T09:22:18;28.20;51.20
14798;DHT22;7490;63.708;20.368;2023-07-20T09:24:44;28.40;49.90
14798;DHT22;7490;63.708;20.368;2023-07-20T09:27:10;27.90;50.20
14798;DHT22;7490;63.708;20.368;2023-07-20T09:29:49;27.30;50.90
14798;DHT22;7490;63.708;20.368;2023-07-20T09:32:18;26.60;51.90
14798;DHT22;7490;63.708;20.368;2023-07-20T09:34:46;26.00;53.20
14798;DHT22;7490;63.708;20.368;2023-07-20T09:37:12;25.30;54.30
14798;DHT22;7490;63.708;20.368;2023-07-20T09:39:46;24.80;55.80
14798;DHT22;7490;63.708;20.368;2023-07-20T09:42:13;25.20;57.00
14798;DHT22;7490;63.708;20.368;2023-07-20T09:44:39;25.70;56.10
14798;DHT22;7490;63.708;20.368;2023-07-20T09:47:06;26.50;55.70
14798;DHT22;7490;63.708;20.368;2023-07-20T09:49:32;28.20;53.70
14798;DHT22;7490;63.708;20.368;2023-07-20T09:51:58;29.70;50.20
14798;DHT22;7490;63.708;20.368;2023-07-20T09:54:26;30.40;48.10
14798;DHT22;7490;63.708;20.368;2023-07-20T09:56:56;30.10;47.80
14798;DHT22;7490;63.708;20.368;2023-07-20T09:59:22;29.60;48.30
14798;DHT22;7490;63.708;20.368;2023-07-20T10:01:48;29.00;48.30
14798;DHT22;7490;63.708;20.368;2023-07-20T10:04:16;28.30;48.90
14798;DHT22;7490;63.708;20.368;2023-07-20T10:06:47;27.50;50.40
14798;DHT22;7490;63.708;20.368;2023-07-20T10:09:15;26.90;52.20
14798;DHT22;7490;63.708;20.368;2023-07-20T10:11:45;26.40;53.10
14798;DHT22;7490;63.708;20.368;2023-07-20T10:14:20;25.90;53.80
14798;DHT22;7490;63.708;20.368;2023-07-20T10:16:54;25.50;55.00
14798;DHT22;7490;63.708;20.368;2023-07-20T10:19:39;25.10;55.80
14798;DHT22;7490;63.708;20.368;2023-07-20T10:22:12;24.80;56.60
14798;DHT22;7490;63.708;20.368;2023-07-20T10:24:39;24.50;57.80
14798;DHT22;7490;63.708;20.368;2023-07-20T10:27:07;24.30;58.80
14798;DHT22;7490;63.708;20.368;2023-07-20T10:29:32;24.10;59.60
14798;DHT22;7490;63.708;20.368;2023-07-20T10:31:58;23.90;60.70
14798;DHT22;7490;63.708;20.368;2023-07-20T10:34:25;23.70;61.50
14798;DHT22;7490;63.708;20.368;2023-07-20T10:36:51;23.70;62.70
14798;DHT22;7490;63.708;20.368;2023-07-20T10:39:25;23.60;64.20
14798;DHT22;7490;63.708;20.368;2023-07-20T10:42:00;23.50;66.10
14798;DHT22;7490;63.708;20.368;2023-07-20T10:44:27;23.50;66.40
14798;DHT22;7490;63.708;20.368;2023-07-20T10:47:02;23.40;66.30
14798;DHT22;7490;63.708;20.368;2023-07-20T10:49:28;23.40;67.20
14798;DHT22;7490;63.708;20.368;2023-07-20T10:51:58;23.60;67.30
14798;DHT22;7490;63.708;20.368;2023-07-20T10:56:54;25.00;67.80
14798;DHT22;7490;63.708;20.368;2023-07-20T10:59:41;26.00;64.70
14798;DHT22;7490;63.708;20.368;2023-07-20T11:02:07;27.10;62.90
14798;DHT22;7490;63.708;20.368;2023-07-20T11:04:44;27.80;59.70
14798;DHT22;7490;63.708;20.368;2023-07-20T11:07:11;28.30;57.30
14798;DHT22;7490;63.708;20.368;2023-07-20T11:09:40;28.30;57.80
14798;DHT22;7490;63.708;20.368;2023-07-20T11:12:14;28.40;58.40
14798;DHT22;7490;63.708;20.368;2023-07-20T11:14:52;28.50;58.10
14798;DHT22;7490;63.708;20.368;2023-07-20T11:17:19;28.50;57.30
14798;DHT22;7490;63.708;20.368;2023-07-20T11:19:55;28.10;55.60
14798;DHT22;7490;63.708;20.368;2023-07-20T11:22:21;27.10;56.30
14798;DHT22;7490;63.708;20.368;2023-07-20T11:24:47;26.30;57.90
14798;DHT22;7490;63.708;20.368;2023-07-20T11:27:15;25.60;60.00
14798;DHT22;7490;63.708;20.368;2023-07-20T11:29:40;25.20;60.70
14798;DHT22;7490;63.708;20.368;2023-07-20T11:32:06;24.80;61.90
14798;DHT22;7490;63.708;20.368;2023-07-20T11:34:33;24.30;62.50
14798;DHT22;7490;63.708;20.368;2023-07-20T11:36:59;24.00;63.50
14798;DHT22;7490;63.708;20.368;2023-07-20T11:39:25;23.70;64.70
14798;DHT22;7490;63.708;20.368;2023-07-20T11:42:00;23.40;66.60
14798;DHT22;7490;63.708;20.368;2023-07-20T11:44:29;23.20;67.70
14798;DHT22;7490;63.708;20.368;2023-07-20T11:49:34;22.80;68.30
14798;DHT22;7490;63.708;20.368;2023-07-20T11:52:01;22.50;68.40
14798;DHT22;7490;63.708;20.368;2023-07-20T11:54:27;22.30;69.70
14798;DHT22;7490;63.708;20.368;2023-07-20T11:56:56;22.10;70.70
14798;DHT22;7490;63.708;20.368;2023-07-20T11:59:22;22.00;72.50
14798;DHT22;7490;63.708;20.368;2023-07-20T12:01:47;22.00;72.10
14798;DHT22;7490;63.708;20.368;2023-07-20T12:04:13;21.90;72.70
14798;DHT22;7490;63.708;20.368;2023-07-20T12:06:39;21.90;73.40
14798;DHT22;7490;63.708;20.368;2023-07-20T12:09:05;22.00;74.30
14798;DHT22;7490;63.708;20.368;2023-07-20T12:13:58;22.00;73.00
14798;DHT22;7490;63.708;20.368;2023-07-20T12:16:27;21.80;72.60
14798;DHT22;7490;63.708;20.368;2023-07-20T12:19:04;21.70;72.80
14798;DHT22;7490;63.708;20.368;2023-07-20T12:21:31;21.50;73.60
14798;DHT22;7490;63.708;20.368;2023-07-20T12:23:57;21.40;73.70
14798;DHT22;7490;63.708;20.368;2023-07-20T12:26:24;21.40;74.20
14798;DHT22;7490;63.708;20.368;2023-07-20T12:28:51;21.30;74.40
14798;DHT22;7490;63.708;20.368;2023-07-20T12:31:17;21.10;74.60
14798;DHT22;7490;63.708;20.368;2023-07-20T12:33:43;21.10;74.70
14798;DHT22;7490;63.708;20.368;2023-07-20T12:36:09;21.10;75.10
14798;DHT22;7490;63.708;20.368;2023-07-20T12:38:35;21.10;74.80
14798;DHT22;7490;63.708;20.368;2023-07-20T12:41:02;21.00;74.50
14798;DHT22;7490;63.708;20.368;2023-07-20T12:43:28;21.10;74.90
14798;DHT22;7490;63.708;20.368;2023-07-20T12:45:55;21.10;74.80
14798;DHT22;7490;63.708;20.368;2023-07-20T12:48:21;21.00;74.60
14798;DHT22;7490;63.708;20.368;2023-07-20T12:50:47;21.00;74.80
14798;DHT22;7490;63.708;20.368;2023-07-20T12:53:13;20.90;74.90
14798;DHT22;7490;63.708;20.368;2023-07-20T12:55:39;20.70;75.10
14798;DHT22;7490;63.708;20.368;2023-07-20T12:58:06;20.60;75.50
14798;DHT22;7490;63.708;20.368;2023-07-20T13:00:32;20.60;76.00
14798;DHT22;7490;63.708;20.368;2023-07-20T13:02:57;20.60;75.90
14798;DHT22;7490;63.708;20.368;2023-07-20T13:05:23;20.50;75.90
14798;DHT22;7490;63.708;20.368;2023-07-20T13:07:49;20.60;76.80
14798;DHT22;7490;63.708;20.368;2023-07-20T13:10:15;20.70;77.00
14798;DHT22;7490;63.708;20.368;2023-07-20T13:12:40;20.80;76.70
14798;DHT22;7490;63.708;20.368;2023-07-20T13:15:07;20.80;76.00
14798;DHT22;7490;63.708;20.368;2023-07-20T13:17:34;20.90;76.30
14798;DHT22;7490;63.708;20.368;2023-07-20T13:20:01;20.90;76.60
14798;DHT22;7490;63.708;20.368;2023-07-20T13:22:27;21.00;77.50
14798;DHT22;7490;63.708;20.368;2023-07-20T13:24:52;21.00;77.90
14798;DHT22;7490;63.708;20.368;2023-07-20T13:27:19;21.00;77.00
14798;DHT22;7490;63.708;20.368;2023-07-20T13:29:45;21.00;77.20
14798;DHT22;7490;63.708;20.368;2023-07-20T13:32:14;21.00;77.40
14798;DHT22;7490;63.708;20.368;2023-07-20T13:34:44;21.00;77.30
14798;DHT22;7490;63.708;20.368;2023-07-20T13:37:10;21.00;76.90
14798;DHT22;7490;63.708;20.368;2023-07-20T13:39:37;20.80;77.00
14798;DHT22;7490;63.708;20.368;2023-07-20T13:42:03;20.80;77.30
14798;DHT22;7490;63.708;20.368;2023-07-20T13:44:31;20.90;77.20
14798;DHT22;7490;63.708;20.368;2023-07-20T13:46:56;20.90;77.00
14798;DHT22;7490;63.708;20.368;2023-07-20T13:49:23;20.90;76.90
14798;DHT22;7490;63.708;20.368;2023-07-20T13:51:48;20.70;77.10
14798;DHT22;7490;63.708;20.368;2023-07-20T13:54:14;20.60;77.60
14798;DHT22;7490;63.708;20.368;2023-07-20T13:56:40;20.40;78.60
14798;DHT22;7490;63.708;20.368;2023-07-20T13:59:05;20.50;79.30
14798;DHT22;7490;63.708;20.368;2023-07-20T14:01:31;20.60;79.10
14798;DHT22;7490;63.708;20.368;2023-07-20T14:03:59;20.70;78.10
14798;DHT22;7490;63.708;20.368;2023-07-20T14:06:25;20.60;77.60
14798;DHT22;7490;63.708;20.368;2023-07-20T14:08:51;20.50;78.10
14798;DHT22;7490;63.708;20.368;2023-07-20T14:11:18;20.40;79.10
14798;DHT22;7490;63.708;20.368;2023-07-20T14:13:44;20.40;80.30
14798;DHT22;7490;63.708;20.368;2023-07-20T14:16:10;20.40;80.60
14798;DHT22;7490;63.708;20.368;2023-07-20T14:18:36;20.40;81.00
14798;DHT22;7490;63.708;20.368;2023-07-20T14:21:01;20.40;81.60
14798;DHT22;7490;63.708;20.368;2023-07-20T14:23:29;20.40;82.20
14798;DHT22;7490;63.708;20.368;2023-07-20T14:25:55;20.40;82.60
14798;DHT22;7490;63.708;20.368;2023-07-20T14:28:21;20.40;82.40
14798;DHT22;7490;63.708;20.368;2023-07-20T14:30:46;20.30;82.20
14798;DHT22;7490;63.708;20.368;2023-07-20T14:33:12;20.40;81.90
14798;DHT22;7490;63.708;20.368;2023-07-20T14:35:38;20.40;81.50
14798;DHT22;7490;63.708;20.368;2023-07-20T14:38:04;20.50;81.40
14798;DHT22;7490;63.708;20.368;2023-07-20T14:40:29;20.60;81.50
14798;DHT22;7490;63.708;20.368;2023-07-20T14:42:56;20.70;81.30
14798;DHT22;7490;63.708;20.368;2023-07-20T14:45:21;20.70;80.70
14798;DHT22;7490;63.708;20.368;2023-07-20T14:47:47;20.70;80.60
14798;DHT22;7490;63.708;20.368;2023-07-20T14:50:19;20.80;81.50
14798;DHT22;7490;63.708;20.368;2023-07-20T14:52:45;20.80;80.30
14798;DHT22;7490;63.708;20.368;2023-07-20T14:55:11;20.80;79.70
14798;DHT22;7490;63.708;20.368;2023-07-20T14:57:36;20.70;79.70
14798;DHT22;7490;63.708;20.368;2023-07-20T15:00:04;20.70;79.70
14798;DHT22;7490;63.708;20.368;2023-07-20T15:02:34;20.70;79.40
14798;DHT22;7490;63.708;20.368;2023-07-20T15:04:59;20.60;79.40
14798;DHT22;7490;63.708;20.368;2023-07-20T15:07:25;20.60;79.80
14798;DHT22;7490;63.708;20.368;2023-07-20T15:09:51;20.70;80.30
14798;DHT22;7490;63.708;20.368;2023-07-20T15:12:17;20.70;80.40
14798;DHT22;7490;63.708;20.368;2023-07-20T15:14:43;20.70;80.50
14798;DHT22;7490;63.708;20.368;2023-07-20T15:17:12;20.60;80.60
14798;DHT22;7490;63.708;20.368;2023-07-20T15:19:38;20.60;80.50
14798;DHT22;7490;63.708;20.368;2023-07-20T15:22:04;20.50;80.70
14798;DHT22;7490;63.708;20.368;2023-07-20T15:24:31;20.50;80.70
14798;DHT22;7490;63.708;20.368;2023-07-20T15:26:56;20.40;80.50
14798;DHT22;7490;63.708;20.368;2023-07-20T15:29:23;20.40;80.60
14798;DHT22;7490;63.708;20.368;2023-07-20T15:31:49;20.40;81.00
14798;DHT22;7490;63.708;20.368;2023-07-20T15:34:15;20.40;81.20
14798;DHT22;7490;63.708;20.368;2023-07-20T15:36:41;20.40;81.10
14798;DHT22;7490;63.708;20.368;2023-07-20T15:39:08;20.30;81.50
14798;DHT22;7490;63.708;20.368;2023-07-20T15:41:34;20.30;82.10
14798;DHT22;7490;63.708;20.368;2023-07-20T15:44:00;20.20;82.60
14798;DHT22;7490;63.708;20.368;2023-07-20T15:49:04;20.00;83.60